Accueil
METAR-TAF:

METAR-TAF

Aéroports :

Fort-de-France, Martinique

Aéroport international Martinique Aimé Césaire

latitude: 14-36N, longitude: 061-00W, altitude: 5 m

Observation

Le bulletin a été fait il y a 16 minutes, à 09:00 UTC
Vent 2 kt de est
Température 24°C
Humidité 83%
Pression 1015 hPa
Visibilité 10 km ou plus
pas de nuages en-dessous de 1500 mètres et pas de cumulonimbus.

METAR: TFFF 260900Z AUTO 08002KT CAVOK 24/21 Q1015 NOSIG

Heure: 05:16 (09:16 UTC)

Prévision

Le bulletin a été fait il y a 4 heures et 16 minutes, à 05:00 UTC
Prévision valable du 26 à 06 UTC au 27 à 06 UTC
Vent 5 kt de est
Visibilité 10 km ou plus
Nuages épars à une hauteur de 2300 ft
Probabilité 30% :
Temporairement
du 26 à 14 UTC au 26 à 18 UTC
averses de pluie

TAF: TFFF 260500Z 2606/2706 10005KT 9999 SCT023 PROB30 TEMPO 2614/2618 SHRA

Observations et prévisions météorologiques de plus de 4000 aéroports (messages METAR et TAF).

Les stations disponibles sont représentées par des disques jaunes et rouges sur la carte.

Passer la souris dessus pour voir le nom de la station.

Cliquer dessus pour voir les observations et prévisions météorologiques.

Pour changer de carte: cliquez sur les boutons verts avec une croix noire pour zoomer, sur le bouton vert avec un tiret pour effectuer un zoom arrière, ou sur les flèches vertes pour les cartes adjacentes.


METAR-TAF: